createdAt,value
2017-11-05T00:00:41.740Z,9.10
2017-11-05T00:03:10.032Z,14.90
2017-11-05T00:05:37.535Z,12.07
2017-11-05T00:08:05.119Z,10.47
2017-11-05T00:10:33.392Z,12.40
2017-11-05T00:13:01.672Z,12.20
2017-11-05T00:15:29.968Z,11.03
2017-11-05T00:17:57.477Z,12.43
2017-11-05T00:20:25.004Z,13.23
2017-11-05T00:22:52.513Z,13.37
2017-11-05T00:25:20.031Z,12.07
2017-11-05T00:27:47.536Z,10.73
2017-11-05T00:30:15.828Z,11.30
2017-11-05T00:32:44.103Z,10.47
2017-11-05T00:35:12.369Z,17.93
2017-11-05T00:37:40.659Z,11.03
2017-11-05T00:40:08.154Z,9.50
2017-11-05T00:42:35.667Z,8.97
2017-11-05T00:45:03.937Z,8.77
2017-11-05T00:47:32.219Z,10.43
2017-11-05T00:50:00.493Z,12.83
2017-11-05T00:52:28.778Z,10.53
2017-11-05T00:54:56.283Z,14.87
2017-11-05T00:57:23.803Z,7.97
2017-11-05T00:59:51.314Z,11.40
2017-11-05T01:02:18.828Z,10.73
2017-11-05T01:04:46.344Z,8.67
2017-11-05T01:07:13.849Z,10.27
2017-11-05T01:09:41.364Z,8.60
2017-11-05T01:12:09.631Z,10.07
2017-11-05T01:14:37.152Z,11.73
2017-11-05T01:17:04.657Z,10.33
2017-11-05T01:19:32.971Z,11.33
2017-11-05T01:22:00.471Z,9.50
2017-11-05T01:24:27.970Z,10.67
2017-11-05T01:26:55.487Z,8.33
2017-11-05T01:29:22.991Z,10.20
2017-11-05T01:31:50.507Z,12.47
2017-11-05T01:34:18.020Z,9.83
2017-11-05T01:36:45.535Z,14.40
2017-11-05T01:39:13.035Z,8.70
2017-11-05T01:41:40.556Z,11.23
2017-11-05T01:44:08.819Z,9.67
2017-11-05T01:46:36.319Z,10.60
2017-11-05T01:49:03.836Z,12.10
2017-11-05T01:51:31.336Z,15.13
2017-11-05T01:53:58.851Z,10.07
2017-11-05T01:56:26.364Z,9.50
2017-11-05T01:58:53.883Z,10.40
2017-11-05T02:01:22.148Z,12.30
2017-11-05T02:03:49.704Z,10.83
2017-11-05T02:06:17.209Z,11.43
2017-11-05T02:08:44.711Z,11.83
2017-11-05T02:11:12.219Z,9.80
2017-11-05T02:13:39.714Z,10.77
2017-11-05T02:16:07.226Z,9.27
2017-11-05T02:18:34.723Z,10.57
2017-11-05T02:21:02.257Z,9.00
2017-11-05T02:23:29.762Z,10.00
2017-11-05T02:25:57.279Z,13.47
2017-11-05T02:28:24.776Z,10.83
2017-11-05T02:30:52.286Z,11.83
2017-11-05T02:33:19.804Z,11.97
2017-11-05T02:35:47.304Z,18.30
2017-11-05T02:38:14.820Z,11.73
2017-11-05T02:40:42.323Z,8.90
2017-11-05T02:43:09.848Z,11.20
2017-11-05T02:45:38.120Z,12.80
2017-11-05T02:48:06.447Z,11.60
2017-11-05T02:50:33.944Z,12.53
2017-11-05T02:53:01.440Z,14.63
2017-11-05T02:55:28.958Z,11.50
2017-11-05T02:57:56.455Z,12.87
2017-11-05T03:00:23.980Z,16.20
2017-11-05T03:02:51.485Z,12.40
2017-11-05T03:05:19.011Z,12.37
2017-11-05T03:07:47.278Z,13.03
2017-11-05T03:10:15.572Z,11.80
2017-11-05T03:12:43.836Z,11.57
2017-11-05T03:15:12.144Z,13.57
2017-11-05T03:17:39.643Z,12.77
2017-11-05T03:20:07.149Z,8.83
2017-11-05T03:22:34.663Z,14.40
2017-11-05T03:25:02.160Z,10.37
2017-11-05T03:27:29.679Z,9.70
2017-11-05T03:29:57.175Z,14.00
2017-11-05T03:32:24.736Z,11.60
2017-11-05T03:34:52.230Z,9.47
2017-11-05T03:37:19.733Z,15.00
2017-11-05T03:39:48.015Z,16.57
2017-11-05T03:42:16.300Z,13.40
2017-11-05T03:44:43.827Z,13.30
2017-11-05T03:47:11.331Z,15.53
2017-11-05T03:49:38.863Z,12.23
2017-11-05T03:52:07.127Z,10.63
2017-11-05T03:54:35.399Z,11.30
2017-11-05T03:57:02.924Z,10.80
2017-11-05T03:59:30.433Z,14.97
2017-11-05T04:01:58.723Z,11.10
2017-11-05T04:04:26.230Z,7.53
2017-11-05T04:06:53.742Z,10.73
2017-11-05T04:09:21.248Z,10.97
2017-11-05T04:11:48.767Z,12.93
2017-11-05T04:14:16.271Z,10.30
2017-11-05T04:16:43.784Z,10.87
2017-11-05T04:19:11.278Z,11.80
2017-11-05T04:21:38.796Z,12.53
2017-11-05T04:24:06.305Z,14.40
2017-11-05T04:26:33.855Z,10.60
2017-11-05T04:29:01.352Z,12.90
2017-11-05T04:31:29.615Z,11.40
2017-11-05T04:33:57.895Z,11.53
2017-11-05T04:36:26.161Z,11.77
2017-11-05T04:38:54.442Z,9.10
2017-11-05T04:41:22.724Z,10.73
2017-11-05T04:43:51.003Z,10.90
2017-11-05T04:46:19.263Z,8.93
2017-11-05T04:48:46.814Z,9.83
2017-11-05T04:51:15.039Z,11.30
2017-11-05T04:53:42.544Z,12.30
2017-11-05T04:56:10.059Z,10.00
2017-11-05T04:58:37.555Z,10.73
2017-11-05T05:01:05.076Z,9.13
2017-11-05T05:03:32.567Z,9.77
2017-11-05T05:06:00.079Z,9.63
2017-11-05T05:08:27.583Z,10.70
2017-11-05T05:10:55.103Z,12.40
2017-11-05T05:13:22.604Z,8.87
2017-11-05T05:15:50.099Z,12.30
2017-11-05T05:18:17.611Z,12.43
2017-11-05T05:20:45.119Z,9.63
2017-11-05T05:23:12.651Z,6.83
2017-11-05T05:25:40.919Z,7.90
2017-11-05T05:28:08.435Z,14.93
2017-11-05T05:30:35.988Z,8.10
2017-11-05T05:33:03.523Z,7.67
2017-11-05T05:35:31.016Z,7.90
2017-11-05T05:37:58.511Z,12.73
2017-11-05T05:40:26.023Z,7.83
2017-11-05T05:42:53.527Z,7.40
2017-11-05T05:45:21.043Z,8.83
2017-11-05T05:47:48.540Z,6.90
2017-11-05T05:50:16.053Z,6.33
2017-11-05T05:52:43.546Z,6.03
2017-11-05T05:55:11.055Z,6.57
2017-11-05T05:57:38.552Z,6.47
2017-11-05T06:00:06.067Z,5.53
2017-11-05T06:02:33.559Z,5.40
2017-11-05T06:05:01.067Z,5.10
2017-11-05T06:07:29.323Z,5.50
2017-11-05T06:09:56.819Z,6.50
2017-11-05T06:12:24.335Z,5.70
2017-11-05T06:14:51.826Z,5.73
2017-11-05T06:17:19.356Z,8.50
2017-11-05T06:19:46.851Z,6.67
2017-11-05T06:22:14.359Z,5.40
2017-11-05T06:24:41.861Z,5.30
2017-11-05T06:27:09.416Z,8.00
2017-11-05T06:29:36.912Z,6.60
2017-11-05T06:32:05.182Z,6.73
2017-11-05T06:34:32.709Z,5.27
2017-11-05T06:37:00.207Z,6.17
2017-11-05T06:39:27.719Z,7.50
2017-11-05T06:41:55.983Z,7.73
2017-11-05T06:44:24.263Z,6.60
2017-11-05T06:46:52.523Z,5.07
2017-11-05T06:49:20.042Z,5.17
2017-11-05T06:51:47.834Z,5.83
2017-11-05T06:54:15.343Z,5.37
2017-11-05T06:56:42.848Z,6.80
2017-11-05T06:59:10.385Z,6.97
2017-11-05T07:01:37.887Z,5.93
2017-11-05T07:04:06.151Z,9.70
2017-11-05T07:06:33.663Z,6.70
2017-11-05T07:09:01.167Z,7.00
2017-11-05T07:11:28.695Z,12.00
2017-11-05T07:13:56.199Z,6.57
2017-11-05T07:16:24.487Z,6.30
2017-11-05T07:18:51.986Z,6.13
2017-11-05T07:21:19.508Z,9.73
2017-11-05T07:23:47.011Z,20.83
2017-11-05T07:26:14.547Z,12.10
2017-11-05T07:28:42.047Z,12.03
2017-11-05T07:31:09.552Z,11.80
2017-11-05T07:33:37.067Z,9.67
2017-11-05T07:36:04.572Z,17.17
2017-11-05T07:38:32.086Z,15.40
2017-11-05T07:40:59.587Z,19.53
2017-11-05T07:43:27.109Z,15.03
2017-11-05T07:45:55.371Z,21.77
2017-11-05T07:48:22.892Z,18.27
2017-11-05T07:50:50.395Z,22.00
2017-11-05T07:53:17.935Z,23.60
2017-11-05T07:55:45.439Z,24.10
2017-11-05T07:58:12.944Z,21.40
2017-11-05T08:00:41.231Z,24.53
2017-11-05T08:03:08.731Z,24.63
2017-11-05T08:05:36.253Z,26.30
2017-11-05T08:08:03.760Z,22.43
2017-11-05T08:10:31.284Z,25.00
2017-11-05T08:12:59.563Z,29.73
2017-11-05T08:15:27.855Z,26.80
2017-11-05T08:17:55.364Z,23.60
2017-11-05T08:20:23.260Z,26.47
2017-11-05T08:22:51.539Z,26.77
2017-11-05T08:25:19.812Z,25.03
2017-11-05T08:27:48.098Z,25.77
2017-11-05T08:30:16.371Z,28.97
2017-11-05T08:32:44.660Z,24.50
2017-11-05T08:35:12.175Z,24.97
2017-11-05T08:37:39.696Z,29.20
2017-11-05T08:40:07.211Z,27.80
2017-11-05T08:42:34.732Z,29.47
2017-11-05T08:45:02.257Z,26.90
2017-11-05T08:47:29.832Z,27.10
2017-11-05T08:49:57.340Z,26.50
2017-11-05T08:52:24.862Z,26.60
2017-11-05T08:54:52.367Z,37.53
2017-11-05T08:57:20.655Z,26.97
2017-11-05T08:59:48.926Z,26.07
2017-11-05T09:02:17.239Z,29.07
2017-11-05T09:04:44.739Z,28.97
2017-11-05T09:07:12.253Z,30.60
2017-11-05T09:09:39.777Z,30.60
2017-11-05T09:12:08.055Z,27.23
2017-11-05T09:14:36.344Z,24.07
2017-11-05T09:17:03.847Z,29.17
2017-11-05T09:19:31.597Z,28.80
2017-11-05T09:21:59.102Z,40.57
2017-11-05T09:24:27.397Z,39.87
2017-11-05T09:29:28.883Z,33.90
2017-11-05T09:31:56.531Z,28.17
2017-11-05T09:34:24.079Z,27.20
2017-11-05T09:36:52.352Z,24.83
2017-11-05T09:39:20.635Z,27.77
2017-11-05T09:41:48.159Z,25.63
2017-11-05T09:44:15.669Z,23.63
2017-11-05T09:46:43.201Z,26.87
2017-11-05T09:49:11.481Z,19.30
2017-11-05T09:51:39.779Z,23.33
2017-11-05T09:54:07.291Z,22.50
2017-11-05T09:56:34.838Z,21.50
2017-11-05T09:59:02.348Z,21.50
2017-11-05T10:01:29.867Z,24.10
2017-11-05T10:03:57.391Z,22.27
2017-11-05T10:06:24.911Z,26.13
2017-11-05T10:08:52.444Z,24.50
2017-11-05T10:11:19.952Z,29.23
2017-11-05T10:13:47.476Z,19.07
2017-11-05T10:16:15.750Z,19.37
2017-11-05T10:18:44.045Z,20.70
2017-11-05T10:21:11.555Z,20.90
2017-11-05T10:23:39.147Z,20.13
2017-11-05T10:26:07.498Z,23.60
2017-11-05T10:28:35.035Z,21.20
2017-11-05T10:31:03.307Z,21.50
2017-11-05T10:33:30.812Z,21.30
2017-11-05T10:35:59.104Z,19.83
2017-11-05T10:38:27.371Z,24.30
2017-11-05T10:40:55.665Z,20.47
2017-11-05T10:43:23.177Z,20.70
2017-11-05T10:45:50.704Z,23.37
2017-11-05T10:48:18.210Z,21.10
2017-11-05T10:50:45.739Z,24.53
2017-11-05T10:53:13.247Z,20.93
2017-11-05T10:55:41.580Z,21.93
2017-11-05T10:58:09.093Z,20.90
2017-11-05T11:00:36.598Z,19.40
2017-11-05T11:03:04.116Z,19.93
2017-11-05T11:05:31.623Z,18.20
2017-11-05T11:07:59.164Z,21.30
2017-11-05T11:10:26.688Z,22.83
2017-11-05T11:12:54.220Z,18.63
2017-11-05T11:15:22.495Z,19.40
2017-11-05T11:17:50.798Z,23.37
2017-11-05T11:20:18.308Z,22.83
2017-11-05T11:22:45.815Z,20.87
2017-11-05T11:25:13.343Z,22.87
2017-11-05T11:27:41.619Z,21.57
2017-11-05T11:30:09.915Z,21.67
2017-11-05T11:32:37.423Z,21.13
2017-11-05T11:35:04.947Z,22.77
2017-11-05T11:37:32.454Z,22.40
2017-11-05T11:40:00.754Z,21.70
2017-11-05T11:42:29.028Z,22.07
2017-11-05T11:44:57.339Z,26.67
2017-11-05T11:47:24.847Z,23.90
2017-11-05T11:49:52.351Z,20.00
2017-11-05T11:52:19.876Z,21.70
2017-11-05T11:54:48.179Z,22.00
2017-11-05T11:57:15.704Z,18.90
2017-11-05T11:59:43.984Z,23.13
2017-11-05T12:02:12.278Z,18.73
2017-11-05T12:04:39.791Z,23.77
2017-11-05T12:07:07.315Z,23.47
2017-11-05T12:09:34.828Z,20.03
2017-11-05T12:12:02.376Z,22.67
2017-11-05T12:14:29.892Z,18.27
2017-11-05T12:16:57.398Z,20.20
2017-11-05T12:19:24.918Z,22.33
2017-11-05T12:21:52.423Z,20.17
2017-11-05T12:24:20.725Z,18.47
2017-11-05T12:26:48.236Z,18.73
2017-11-05T12:29:15.767Z,18.80
2017-11-05T12:31:43.287Z,17.00
2017-11-05T12:34:11.580Z,17.30
2017-11-05T12:36:39.147Z,17.50
2017-11-05T12:39:06.746Z,17.33
2017-11-05T12:41:34.264Z,19.60
2017-11-05T12:44:01.763Z,16.27
2017-11-05T12:46:29.287Z,14.07
2017-11-05T12:48:56.787Z,12.27
2017-11-05T12:51:24.317Z,12.23
2017-11-05T12:53:51.828Z,25.83
2017-11-05T12:56:20.115Z,15.43
2017-11-05T12:58:48.380Z,16.00
2017-11-05T13:01:16.677Z,16.10
2017-11-05T13:03:44.188Z,17.30
2017-11-05T13:06:11.715Z,16.50
2017-11-05T13:08:39.220Z,20.77
2017-11-05T13:11:07.533Z,12.50
2017-11-05T13:13:35.044Z,11.80
2017-11-05T13:16:02.556Z,18.03
2017-11-05T13:18:30.139Z,15.90
2017-11-05T13:20:57.647Z,13.10
2017-11-05T13:23:25.171Z,12.60
2017-11-05T13:25:52.679Z,12.00
2017-11-05T13:28:20.200Z,13.50
2017-11-05T13:30:47.704Z,13.70
2017-11-05T13:33:15.246Z,10.97
2017-11-05T13:35:42.752Z,10.57
2017-11-05T13:38:10.260Z,12.40
2017-11-05T13:40:37.775Z,7.00
2017-11-05T13:43:05.276Z,6.60
2017-11-05T13:48:06.719Z,3.90
2017-11-05T13:50:35.016Z,3.93
2017-11-05T13:53:02.514Z,3.13
2017-11-05T13:55:30.053Z,2.50
2017-11-05T13:57:57.554Z,2.17
2017-11-05T14:00:25.047Z,2.80
2017-11-05T14:02:52.564Z,5.03
2017-11-05T14:05:20.055Z,2.17
2017-11-05T14:07:48.330Z,3.50
2017-11-05T14:10:16.591Z,1.77
2017-11-05T14:12:44.159Z,2.37
2017-11-05T14:15:12.442Z,2.83
2017-11-05T14:17:40.747Z,2.57
2017-11-05T14:20:08.248Z,2.50
2017-11-05T14:22:36.015Z,5.23
2017-11-05T14:25:03.584Z,0.80
2017-11-05T14:27:31.087Z,1.30
2017-11-05T14:29:58.652Z,1.97
2017-11-05T14:32:26.376Z,1.20
2017-11-05T14:34:54.653Z,1.97
2017-11-05T14:37:22.911Z,1.27
2017-11-05T14:39:50.479Z,1.23
2017-11-05T14:42:18.751Z,4.00
2017-11-05T14:44:46.267Z,2.63
2017-11-05T14:47:13.815Z,5.80
2017-11-05T14:49:41.383Z,1.23
2017-11-05T14:52:08.890Z,2.00
2017-11-05T14:54:37.196Z,1.10
2017-11-05T14:57:04.714Z,2.10
2017-11-05T14:59:32.995Z,1.37
2017-11-05T15:02:00.508Z,1.40
2017-11-05T15:04:28.059Z,1.93
2017-11-05T15:06:55.571Z,1.50
2017-11-05T15:09:23.111Z,1.07
2017-11-05T15:11:50.631Z,1.07
2017-11-05T15:14:18.183Z,1.13
2017-11-05T15:16:45.728Z,1.60
2017-11-05T15:19:13.244Z,1.00
2017-11-05T15:21:40.739Z,1.33
2017-11-05T15:24:09.016Z,1.20
2017-11-05T15:26:37.375Z,1.87
2017-11-05T15:29:04.934Z,0.57
2017-11-05T15:31:32.516Z,4.23
2017-11-05T15:34:00.051Z,0.80
2017-11-05T15:36:27.556Z,0.77
2017-11-05T15:38:55.071Z,0.97
2017-11-05T15:41:22.580Z,0.60
2017-11-05T15:43:50.171Z,0.93
2017-11-05T15:46:18.442Z,2.67
2017-11-05T15:48:45.937Z,0.50
2017-11-05T15:51:14.910Z,0.70
2017-11-05T15:53:42.428Z,1.03
2017-11-05T15:56:09.995Z,4.37
2017-11-05T15:58:37.497Z,1.00
2017-11-05T16:01:05.779Z,1.87
2017-11-05T16:03:34.052Z,2.77
2017-11-05T16:06:02.331Z,1.40
2017-11-05T16:08:30.987Z,0.83
2017-11-05T16:10:58.523Z,2.03
2017-11-05T16:13:26.023Z,2.00
2017-11-05T16:15:54.338Z,0.87
2017-11-05T16:18:21.859Z,4.63
2017-11-05T16:20:50.120Z,9.47
2017-11-05T16:23:17.692Z,3.77
2017-11-05T16:25:45.188Z,2.60
2017-11-05T16:28:12.760Z,1.73
2017-11-05T16:30:40.261Z,2.00
2017-11-05T16:33:07.855Z,4.17
2017-11-05T16:35:35.368Z,21.10
2017-11-05T16:38:02.927Z,10.20
2017-11-05T16:40:30.443Z,11.93
2017-11-05T16:42:57.996Z,2.70
2017-11-05T16:45:25.563Z,1.50
2017-11-05T16:47:53.106Z,2.80
2017-11-05T16:50:20.619Z,2.37
2017-11-05T16:52:48.166Z,3.20
2017-11-05T16:55:16.444Z,2.50
2017-11-05T16:57:43.978Z,1.53
2017-11-05T17:00:11.538Z,2.67
2017-11-05T17:02:39.093Z,1.87
2017-11-05T17:05:06.612Z,1.80
2017-11-05T17:07:36.256Z,2.33
2017-11-05T17:10:04.649Z,2.00
2017-11-05T17:12:33.195Z,3.00
2017-11-05T17:15:01.657Z,2.63
2017-11-05T17:17:29.269Z,2.80
2017-11-05T17:19:56.776Z,2.53
2017-11-05T17:22:25.812Z,3.57
2017-11-05T17:24:53.311Z,2.60
2017-11-05T17:27:20.820Z,3.37
2017-11-05T17:29:48.319Z,3.17
2017-11-05T17:32:15.839Z,3.00
2017-11-05T17:34:43.338Z,2.47
2017-11-05T17:37:10.908Z,2.27
2017-11-05T17:39:38.463Z,2.83
2017-11-05T17:42:06.050Z,2.87
2017-11-05T17:44:34.311Z,3.10
2017-11-05T17:47:02.575Z,3.57
2017-11-05T17:49:30.096Z,4.93
2017-11-05T17:51:57.595Z,4.47
2017-11-05T17:54:25.167Z,14.17
2017-11-05T17:56:53.487Z,48.83
2017-11-05T17:59:21.011Z,38.43
2017-11-05T18:01:49.274Z,4.93
2017-11-05T18:04:17.617Z,4.87
2017-11-05T18:06:46.038Z,3.30
2017-11-05T18:09:14.363Z,5.83
2017-11-05T18:11:41.859Z,4.47
2017-11-05T18:14:09.356Z,3.50
2017-11-05T18:16:36.873Z,5.23
2017-11-05T18:19:04.376Z,3.40
2017-11-05T18:21:31.952Z,5.60
2017-11-05T18:23:59.503Z,7.20
2017-11-05T18:26:27.071Z,4.30
2017-11-05T18:28:54.632Z,3.67
2017-11-05T18:31:22.202Z,32.93
2017-11-05T18:33:50.523Z,22.87
2017-11-05T18:36:18.827Z,35.23
2017-11-05T18:38:46.331Z,39.53
2017-11-05T18:41:14.049Z,17.90
2017-11-05T18:43:41.571Z,33.70
2017-11-05T18:46:10.467Z,53.10
2017-11-05T18:48:38.014Z,12.33
2017-11-05T18:51:05.563Z,6.67
2017-11-05T18:53:33.134Z,10.77
2017-11-05T18:56:00.687Z,12.87
2017-11-05T18:58:28.274Z,5.87
2017-11-05T19:00:55.828Z,24.03
2017-11-05T19:03:24.096Z,8.50
2017-11-05T19:08:26.306Z,6.73
2017-11-05T19:10:53.814Z,6.60
2017-11-05T19:13:21.375Z,6.40
2017-11-05T19:15:48.892Z,6.20
2017-11-05T19:18:16.387Z,10.77
2017-11-05T19:20:43.922Z,8.80
2017-11-05T19:23:11.467Z,7.50
2017-11-05T19:25:39.036Z,12.30
2017-11-05T19:28:06.842Z,6.20
2017-11-05T19:30:34.344Z,6.40
2017-11-05T19:33:01.855Z,10.67
2017-11-05T19:35:29.355Z,10.63
2017-11-05T19:37:56.923Z,7.40
2017-11-05T19:40:24.475Z,8.73
2017-11-05T19:42:52.022Z,9.20
2017-11-05T19:45:19.566Z,9.07
2017-11-05T19:47:47.884Z,11.43
2017-11-05T19:50:15.459Z,9.23
2017-11-05T19:52:43.012Z,9.83
2017-11-05T19:55:10.524Z,8.07
2017-11-05T19:57:38.839Z,8.27
2017-11-05T20:00:06.407Z,12.50
2017-11-05T20:02:33.959Z,8.00
2017-11-05T20:05:01.548Z,8.80
2017-11-05T20:07:29.095Z,10.80
2017-11-05T20:09:56.651Z,11.43
2017-11-05T20:12:24.214Z,13.80
2017-11-05T20:14:51.714Z,15.20
2017-11-05T20:17:19.999Z,18.17
2017-11-05T20:19:47.556Z,21.20
2017-11-05T20:22:15.135Z,31.07
2017-11-05T20:24:42.631Z,24.67
2017-11-05T20:27:10.230Z,23.13
2017-11-05T20:29:38.496Z,24.07
2017-11-05T20:32:06.811Z,21.00
2017-11-05T20:34:34.374Z,14.23
2017-11-05T20:37:01.924Z,14.47
2017-11-05T20:39:29.496Z,18.40
2017-11-05T20:41:57.041Z,18.40
2017-11-05T20:44:24.612Z,23.40
2017-11-05T20:46:52.154Z,22.30
2017-11-05T20:49:19.723Z,23.53
2017-11-05T20:51:47.270Z,24.27
2017-11-05T20:54:14.862Z,14.80
2017-11-05T20:56:42.402Z,24.83
2017-11-05T20:59:09.911Z,17.57
2017-11-05T21:01:37.482Z,20.87
2017-11-05T21:04:05.748Z,19.17
2017-11-05T21:06:34.029Z,20.90
2017-11-05T21:09:01.579Z,19.07
2017-11-05T21:11:29.091Z,17.87
2017-11-05T21:13:56.600Z,24.13
2017-11-05T21:16:24.709Z,25.40
2017-11-05T21:18:52.279Z,23.40
2017-11-05T21:21:19.822Z,17.73
2017-11-05T21:23:47.326Z,23.23
2017-11-05T21:26:14.823Z,22.30
2017-11-05T21:28:43.158Z,29.17
2017-11-05T21:31:10.715Z,25.13
2017-11-05T21:33:38.230Z,20.27
2017-11-05T21:36:05.782Z,23.80
2017-11-05T21:38:33.346Z,28.53
2017-11-05T21:41:00.901Z,30.00
2017-11-05T21:43:28.475Z,25.83
2017-11-05T21:45:56.026Z,27.90
2017-11-05T21:48:23.588Z,22.17
2017-11-05T21:50:51.147Z,26.27
2017-11-05T21:53:18.978Z,26.20
2017-11-05T21:55:47.409Z,30.47
2017-11-05T21:58:14.995Z,20.40
2017-11-05T22:00:42.522Z,26.87
2017-11-05T22:03:12.002Z,24.77
2017-11-05T22:05:40.296Z,28.00
2017-11-05T22:08:07.870Z,28.40
2017-11-05T22:10:35.527Z,27.73
2017-11-05T22:13:03.046Z,32.43
2017-11-05T22:15:31.352Z,34.57
2017-11-05T22:17:58.907Z,34.77
2017-11-05T22:20:26.402Z,30.20
2017-11-05T22:22:53.919Z,30.40
2017-11-05T22:25:21.423Z,29.20
2017-11-05T22:27:48.935Z,28.17
2017-11-05T22:30:16.434Z,31.60
2017-11-05T22:32:43.955Z,34.70
2017-11-05T22:35:11.459Z,30.77
2017-11-05T22:37:38.978Z,30.03
2017-11-05T22:40:06.523Z,26.30
2017-11-05T22:42:34.062Z,23.73
2017-11-05T22:45:02.332Z,27.27
2017-11-05T22:47:30.608Z,28.13
2017-11-05T22:49:58.892Z,22.87
2017-11-05T22:52:27.154Z,29.93
2017-11-05T22:54:54.672Z,30.93
2017-11-05T22:57:22.175Z,31.83
2017-11-05T22:59:50.459Z,28.60
2017-11-05T23:02:18.736Z,30.93
2017-11-05T23:04:47.020Z,32.20
2017-11-05T23:07:15.291Z,31.33
2017-11-05T23:09:43.614Z,29.80
2017-11-05T23:12:11.120Z,30.33
2017-11-05T23:14:39.383Z,29.00
2017-11-05T23:17:06.899Z,35.33
2017-11-05T23:19:34.403Z,28.20
2017-11-05T23:22:01.922Z,28.87
2017-11-05T23:24:29.432Z,30.63
2017-11-05T23:26:57.719Z,29.13
2017-11-05T23:29:25.219Z,32.30
2017-11-05T23:31:52.731Z,36.60
2017-11-05T23:34:21.004Z,32.67
2017-11-05T23:36:49.272Z,35.57
2017-11-05T23:39:17.560Z,32.13
2017-11-05T23:41:45.063Z,31.50
2017-11-05T23:44:13.351Z,37.43
2017-11-05T23:46:40.851Z,30.93
2017-11-05T23:49:08.378Z,27.83
2017-11-05T23:51:35.879Z,35.30
2017-11-05T23:54:03.414Z,33.10
2017-11-05T23:56:31.679Z,33.70
2017-11-05T23:58:59.193Z,33.20
